createdAt,value
2022-11-12T00:00:20.773Z,100427.42
2022-11-12T00:03:27.561Z,100435.66
2022-11-12T00:06:33.936Z,100430.70
2022-11-12T00:09:38.510Z,100420.95
2022-11-12T00:12:44.843Z,100427.07
2022-11-12T00:15:49.402Z,100433.84
2022-11-12T00:18:55.731Z,100436.13
2022-11-12T00:22:00.425Z,100433.41
2022-11-12T00:25:08.319Z,100436.81
2022-11-12T00:28:14.817Z,100438.80
2022-11-12T00:31:21.165Z,100441.27
2022-11-12T00:34:25.858Z,100439.73
2022-11-12T00:37:32.166Z,100443.60
2022-11-12T00:40:36.788Z,100444.52
2022-11-12T00:43:42.988Z,100452.92
2022-11-12T00:46:49.761Z,100455.54
2022-11-12T00:49:56.158Z,100454.70
2022-11-12T00:53:00.723Z,100450.09
2022-11-12T00:56:09.454Z,100447.18
2022-11-12T00:59:16.090Z,100450.50
2022-11-12T01:02:22.395Z,100446.93
2022-11-12T01:05:26.982Z,100444.10
2022-11-12T01:08:34.083Z,100446.42
2022-11-12T01:11:42.273Z,100445.90
2022-11-12T01:14:48.533Z,100446.98
2022-11-12T01:17:54.889Z,100443.75
2022-11-12T01:21:01.386Z,100445.49
2022-11-12T01:24:08.786Z,100445.80
2022-11-12T01:27:15.142Z,100445.13
2022-11-12T01:30:19.918Z,100444.59
2022-11-12T01:33:26.199Z,100453.23
2022-11-12T01:36:35.703Z,100451.06
2022-11-12T01:39:42.060Z,100458.14
2022-11-12T01:42:52.626Z,100459.20
2022-11-12T01:46:01.385Z,100457.52
2022-11-12T01:49:12.362Z,100459.20
2022-11-12T01:52:23.021Z,100454.98
2022-11-12T01:55:33.867Z,100451.36
2022-11-12T01:58:41.663Z,100453.80
2022-11-12T02:01:48.023Z,100455.10
2022-11-12T02:04:53.020Z,100456.14
2022-11-12T02:08:02.110Z,100450.54
2022-11-12T02:11:17.382Z,100452.02
2022-11-12T02:14:24.468Z,100449.58
2022-11-12T02:17:30.753Z,100450.98
2022-11-12T02:20:39.061Z,100450.23
2022-11-12T02:23:45.352Z,100445.36
2022-11-12T02:26:55.465Z,100445.31
2022-11-12T02:30:01.811Z,100445.56
2022-11-12T02:33:06.467Z,100443.48
2022-11-12T02:36:13.039Z,100448.47
2022-11-12T02:39:19.894Z,100452.97
2022-11-12T02:42:26.198Z,100450.28
2022-11-12T02:45:34.808Z,100445.40
2022-11-12T02:48:41.328Z,100443.36
2022-11-12T02:51:47.717Z,100441.05
2022-11-12T02:54:52.318Z,100439.17
2022-11-12T02:58:01.762Z,100439.01
2022-11-12T03:01:08.429Z,100436.48
2022-11-12T03:04:14.817Z,100437.23
2022-11-12T03:07:19.499Z,100433.09
2022-11-12T03:10:26.162Z,100435.30
2022-11-12T03:13:32.491Z,100434.10
2022-11-12T03:16:37.074Z,100431.23
2022-11-12T03:19:43.406Z,100435.36
2022-11-12T03:22:55.912Z,100439.89
2022-11-12T03:26:03.228Z,100441.48
2022-11-12T03:29:09.556Z,100440.08
2022-11-12T03:32:14.145Z,100442.38
2022-11-12T03:35:20.593Z,100446.97
2022-11-12T03:38:27.168Z,100446.31
2022-11-12T03:41:33.815Z,100445.48
2022-11-12T03:44:38.388Z,100438.98
2022-11-12T03:47:46.887Z,100440.02
2022-11-12T03:50:53.406Z,100443.13
2022-11-12T03:53:59.811Z,100446.69
2022-11-12T03:57:04.569Z,100446.86
2022-11-12T04:00:13.289Z,100444.21
2022-11-12T04:03:19.611Z,100440.31
2022-11-12T04:06:41.722Z,100443.08
2022-11-12T04:09:48.116Z,100443.86
2022-11-12T04:13:12.144Z,100441.66
2022-11-12T04:16:37.565Z,100440.12
2022-11-12T04:20:01.235Z,100443.64
2022-11-12T04:23:07.496Z,100444.08
2022-11-12T04:26:26.160Z,100441.36
2022-11-12T04:29:49.935Z,100440.66
2022-11-12T04:32:57.036Z,100440.63
2022-11-12T04:36:03.398Z,100438.04
2022-11-12T04:39:09.874Z,100435.23
2022-11-12T04:42:33.841Z,100435.42
2022-11-12T04:45:42.047Z,100437.33
2022-11-12T04:48:48.367Z,100438.29
2022-11-12T04:52:08.011Z,100437.63
2022-11-12T04:55:14.629Z,100431.34
2022-11-12T04:58:21.326Z,100433.36
2022-11-12T05:01:27.640Z,100433.30
2022-11-12T05:04:32.183Z,100434.85
2022-11-12T05:07:38.470Z,100439.26
2022-11-12T05:10:43.078Z,100441.70
2022-11-12T05:13:49.436Z,100439.45
2022-11-12T05:16:53.962Z,100439.77
2022-11-12T05:20:00.243Z,100434.46
2022-11-12T05:23:07.420Z,100433.26
2022-11-12T05:26:14.110Z,100440.55
2022-11-12T05:29:21.042Z,100442.97
2022-11-12T05:32:27.994Z,100445.39
2022-11-12T05:35:34.292Z,100445.25
2022-11-12T05:38:39.534Z,100443.99
2022-11-12T05:42:11.303Z,100454.69
2022-11-12T05:45:13.144Z,100456.77
2022-11-12T05:48:24.203Z,100454.88
2022-11-12T05:51:30.989Z,100454.63
2022-11-12T06:07:12.181Z,100462.29
2022-11-12T06:10:20.668Z,100470.91
2022-11-12T06:13:28.885Z,100475.48
2022-11-12T06:16:35.410Z,100476.50
2022-11-12T06:19:41.800Z,100477.89
2022-11-12T06:22:46.186Z,100477.22
2022-11-12T06:25:52.320Z,100486.29
2022-11-12T06:28:58.738Z,100486.40
2022-11-12T06:32:05.159Z,100483.36
2022-11-12T06:35:10.505Z,100487.13
2022-11-12T06:38:16.672Z,100491.83
2022-11-12T06:41:22.962Z,100496.58
2022-11-12T06:44:27.462Z,100495.86
2022-11-12T06:47:33.776Z,100497.73
2022-11-12T06:50:38.385Z,100499.97
2022-11-12T06:53:44.997Z,100498.45
2022-11-12T06:56:51.503Z,100500.53
2022-11-12T06:59:57.807Z,100502.63
2022-11-12T07:03:06.617Z,100506.66
2022-11-12T07:06:14.687Z,100501.17
2022-11-12T07:09:21.363Z,100499.74
2022-11-12T07:12:27.698Z,100493.28
2022-11-12T07:15:32.359Z,100493.23
2022-11-12T07:18:39.021Z,100494.30
2022-11-12T07:21:45.092Z,100497.13
2022-11-12T07:24:51.438Z,100497.92
2022-11-12T07:27:56.415Z,100494.66
2022-11-12T07:31:05.018Z,100496.70
2022-11-12T07:34:11.409Z,100494.52
2022-11-12T07:37:15.959Z,100491.02
2022-11-12T07:40:22.533Z,100487.85
2022-11-12T07:43:28.825Z,100484.83
2022-11-12T07:46:33.552Z,100483.34
2022-11-12T07:49:39.955Z,100481.05
2022-11-12T07:52:44.685Z,100477.95
2022-11-12T07:55:58.427Z,100475.26
2022-11-12T07:59:06.004Z,100482.38
2022-11-12T08:02:13.049Z,100486.17
2022-11-12T08:05:21.544Z,100489.33
2022-11-12T08:08:28.453Z,100488.98
2022-11-12T08:11:35.303Z,100485.33
2022-11-12T08:14:41.605Z,100488.68
2022-11-12T08:17:46.281Z,100493.74
2022-11-12T08:20:52.600Z,100496.35
2022-11-12T08:23:57.205Z,100496.22
2022-11-12T08:27:03.483Z,100496.51
2022-11-12T08:30:12.246Z,100487.64
2022-11-12T08:33:18.591Z,100487.86
2022-11-12T08:36:23.210Z,100492.25
2022-11-12T08:39:29.603Z,100492.23
2022-11-12T08:42:34.260Z,100494.63
2022-11-12T08:45:42.214Z,100495.65
2022-11-12T08:48:48.492Z,100491.88
2022-11-12T08:51:54.955Z,100498.27
2022-11-12T08:55:01.318Z,100502.73
2022-11-12T08:58:06.036Z,100501.91
2022-11-12T09:01:12.361Z,100500.58
2022-11-12T09:04:16.943Z,100498.96
2022-11-12T09:07:48.918Z,100496.35
2022-11-12T09:10:50.112Z,100501.46
2022-11-12T09:13:57.294Z,100500.58
2022-11-12T09:17:03.618Z,100499.16
2022-11-12T09:20:09.059Z,100496.77
2022-11-12T09:23:17.860Z,100499.51
2022-11-12T09:26:24.305Z,100499.41
2022-11-12T09:29:28.885Z,100495.40
2022-11-12T09:32:35.370Z,100488.38
2022-11-12T09:35:41.790Z,100485.46
2022-11-12T09:38:48.106Z,100484.14
2022-11-12T09:41:55.499Z,100490.30
2022-11-12T09:45:08.948Z,100492.42
2022-11-12T09:48:21.821Z,100486.72
2022-11-12T09:51:33.997Z,100490.34
2022-11-12T09:54:40.981Z,100495.34
2022-11-12T09:57:47.607Z,100496.80
2022-11-12T10:00:59.193Z,100496.40
2022-11-12T10:04:17.901Z,100495.31
2022-11-12T10:07:37.921Z,100491.58
2022-11-12T10:10:48.566Z,100492.20
2022-11-12T10:14:09.976Z,100491.73
2022-11-12T10:17:28.834Z,100489.58
2022-11-12T10:20:43.717Z,100492.39
2022-11-12T10:23:54.273Z,100484.95
2022-11-12T10:27:00.695Z,100484.06
2022-11-12T10:30:14.887Z,100476.39
2022-11-12T10:33:20.512Z,100471.13
2022-11-12T10:36:31.526Z,100469.52
2022-11-12T10:39:42.810Z,100469.25
2022-11-12T10:43:00.900Z,100468.42
2022-11-12T10:46:21.395Z,100466.75
2022-11-12T10:49:27.720Z,100467.91
2022-11-12T10:52:33.577Z,100469.45
2022-11-12T10:55:55.406Z,100462.80
2022-11-12T10:59:17.725Z,100458.74
2022-11-12T11:02:23.422Z,100457.84
2022-11-12T11:05:36.888Z,100453.54
2022-11-12T11:08:45.179Z,100451.14
2022-11-12T11:11:54.755Z,100449.02
2022-11-12T11:15:20.113Z,100447.76
2022-11-12T11:18:26.414Z,100443.42
2022-11-12T11:21:58.819Z,100437.80
2022-11-12T11:25:20.964Z,100433.16
2022-11-12T11:28:34.694Z,100431.92
2022-11-12T11:31:46.945Z,100428.67
2022-11-12T11:35:03.226Z,100424.96
2022-11-12T11:38:23.330Z,100426.58
2022-11-12T11:41:45.778Z,100425.48
2022-11-12T11:45:00.945Z,100425.27
2022-11-12T11:48:14.983Z,100423.88
2022-11-12T11:51:37.331Z,100423.23
2022-11-12T11:55:03.144Z,100419.95
2022-11-12T11:58:19.974Z,100415.61
2022-11-12T12:01:33.808Z,100413.98
2022-11-12T12:04:52.503Z,100411.85
2022-11-12T12:08:04.080Z,100409.23
2022-11-12T12:11:17.815Z,100407.36
2022-11-12T12:14:42.793Z,100404.42
2022-11-12T12:18:02.433Z,100400.33
2022-11-12T12:21:15.730Z,100394.63
2022-11-12T12:24:25.195Z,100396.25
2022-11-12T12:27:36.047Z,100393.59
2022-11-12T12:30:46.485Z,100394.16
2022-11-12T12:33:56.448Z,100397.20
2022-11-12T12:37:08.341Z,100395.21
2022-11-12T12:40:22.289Z,100390.05
2022-11-12T12:43:34.449Z,100388.04
2022-11-12T12:46:45.686Z,100389.48
2022-11-12T12:49:52.821Z,100390.00
2022-11-12T12:53:07.250Z,100391.14
2022-11-12T12:56:47.173Z,100387.55
2022-11-12T12:59:52.865Z,100384.38
2022-11-12T13:02:59.607Z,100386.25
2022-11-12T13:06:23.074Z,100388.83
2022-11-12T13:09:29.642Z,100387.69
2022-11-12T13:13:04.664Z,100391.55
2022-11-12T13:16:10.772Z,100394.67
2022-11-12T13:19:27.581Z,100393.17
2022-11-12T13:22:52.573Z,100391.96
2022-11-12T13:26:35.511Z,100391.20
2022-11-12T13:29:46.213Z,100391.06
2022-11-12T13:32:59.130Z,100393.90
2022-11-12T13:36:29.954Z,100389.81
2022-11-12T13:39:38.338Z,100393.26
2022-11-12T13:42:50.263Z,100394.63
2022-11-12T13:46:00.405Z,100394.48
2022-11-12T13:49:10.666Z,100390.23
2022-11-12T13:52:19.917Z,100391.08
2022-11-12T13:55:25.553Z,100396.42
2022-11-12T13:58:33.444Z,100396.95
2022-11-12T14:01:41.175Z,100396.39
2022-11-12T14:04:47.154Z,100395.67
2022-11-12T14:08:04.340Z,100392.86
2022-11-12T14:11:25.144Z,100390.95
2022-11-12T14:14:45.868Z,100390.05
2022-11-12T14:17:59.508Z,100391.05
2022-11-12T14:21:12.419Z,100393.80
2022-11-12T14:24:18.137Z,100395.05
2022-11-12T14:27:36.738Z,100393.99
2022-11-12T14:30:47.653Z,100393.05
2022-11-12T14:33:53.232Z,100389.09
2022-11-12T14:36:59.221Z,100389.12
2022-11-12T14:40:05.787Z,100387.94
2022-11-12T14:43:27.387Z,100385.59
2022-11-12T14:46:39.703Z,100382.60
2022-11-12T14:49:49.160Z,100381.11
2022-11-12T14:53:00.562Z,100378.40
2022-11-12T14:56:08.604Z,100377.36
2022-11-12T14:59:15.674Z,100381.45
2022-11-12T15:02:36.053Z,100379.67
2022-11-12T15:06:10.673Z,100378.48
2022-11-12T15:09:21.986Z,100381.41
2022-11-12T15:12:31.535Z,100383.66
2022-11-12T15:15:38.674Z,100384.29
2022-11-12T15:18:45.052Z,100383.56
2022-11-12T15:21:53.374Z,100385.45
2022-11-12T15:25:10.503Z,100386.11
2022-11-12T15:28:22.188Z,100389.09
2022-11-12T15:31:27.842Z,100393.26
2022-11-12T15:34:48.087Z,100395.98
2022-11-12T15:37:54.388Z,100395.39
2022-11-12T15:41:00.993Z,100401.30
2022-11-12T15:44:09.340Z,100403.34
2022-11-12T15:47:21.890Z,100408.01
2022-11-12T15:50:28.067Z,100410.02
2022-11-12T15:53:32.080Z,100411.85
2022-11-12T15:56:37.937Z,100417.52
2022-11-12T15:59:44.803Z,100419.98
2022-11-12T16:02:57.023Z,100428.59
2022-11-12T16:06:08.645Z,100430.52
2022-11-12T16:09:15.087Z,100434.47
2022-11-12T16:12:21.146Z,100438.62
2022-11-12T16:15:27.139Z,100442.23
2022-11-12T16:18:32.776Z,100447.26
2022-11-12T16:21:38.428Z,100443.77
2022-11-12T16:24:44.775Z,100440.60
2022-11-12T16:27:54.410Z,100442.05
2022-11-12T16:31:01.338Z,100446.86
2022-11-12T16:34:07.059Z,100446.99
2022-11-12T16:37:14.001Z,100443.80
2022-11-12T16:40:22.248Z,100442.87
2022-11-12T16:43:28.190Z,100440.85
2022-11-12T16:46:40.250Z,100440.58
2022-11-12T16:49:45.860Z,100437.86
2022-11-12T16:52:52.857Z,100440.26
2022-11-12T16:55:59.262Z,100437.39
2022-11-12T16:59:05.686Z,100443.37
2022-11-12T17:02:16.744Z,100440.61
2022-11-12T17:05:24.464Z,100436.40
2022-11-12T17:08:33.968Z,100439.86
2022-11-12T17:11:40.568Z,100442.95
2022-11-12T17:14:46.153Z,100443.10
2022-11-12T17:17:54.117Z,100448.00
2022-11-12T17:21:07.263Z,100449.58
2022-11-12T17:24:12.964Z,100447.45
2022-11-12T17:27:18.674Z,100454.27
2022-11-12T17:30:24.324Z,100457.45
2022-11-12T17:33:30.326Z,100452.06
2022-11-12T17:36:40.587Z,100461.51
2022-11-12T17:39:49.057Z,100473.13
2022-11-12T17:42:55.225Z,100473.03
2022-11-12T17:46:01.290Z,100471.27
2022-11-12T17:49:07.044Z,100467.25
2022-11-12T17:52:12.679Z,100472.34
2022-11-12T17:55:18.475Z,100476.39
2022-11-12T17:58:24.057Z,100474.61
2022-11-12T18:01:31.242Z,100478.48
2022-11-12T18:04:37.100Z,100480.56
2022-11-12T18:07:42.796Z,100481.96
2022-11-12T18:10:48.449Z,100486.86
2022-11-12T18:13:54.203Z,100490.77
2022-11-12T18:17:01.453Z,100493.31
2022-11-12T18:20:09.693Z,100493.55
2022-11-12T18:23:15.565Z,100498.16
2022-11-12T18:26:21.930Z,100499.09
2022-11-12T18:29:26.045Z,100500.00
2022-11-12T18:32:31.897Z,100506.59
2022-11-12T18:35:37.760Z,100509.46
2022-11-12T18:50:49.181Z,100515.33
2022-11-12T18:53:54.782Z,100519.14
2022-11-12T18:57:00.435Z,100521.16
2022-11-12T19:00:07.167Z,100518.37
2022-11-12T19:03:12.836Z,100521.25
2022-11-12T19:06:18.477Z,100528.07
2022-11-12T19:09:24.049Z,100527.02
2022-11-12T19:12:29.722Z,100527.29
2022-11-12T19:15:36.391Z,100531.23
2022-11-12T19:18:43.374Z,100532.38
2022-11-12T19:21:49.591Z,100530.64
2022-11-12T19:24:55.294Z,100536.80
2022-11-12T19:28:00.916Z,100539.63
2022-11-12T19:31:08.627Z,100543.01
2022-11-12T19:34:14.399Z,100544.02
2022-11-12T19:37:33.007Z,100549.02
2022-11-12T19:40:39.782Z,100555.53
2022-11-12T19:43:45.587Z,100557.58
2022-11-12T19:46:51.341Z,100557.20
2022-11-12T19:49:56.993Z,100553.66
2022-11-12T19:53:02.852Z,100554.80
2022-11-12T19:56:09.402Z,100553.25
2022-11-12T19:59:15.177Z,100553.00
2022-11-12T20:02:21.454Z,100552.14
2022-11-12T20:05:25.663Z,100550.24
2022-11-12T20:08:32.338Z,100559.38
2022-11-12T20:11:38.195Z,100553.95
2022-11-12T20:14:43.949Z,100556.95
2022-11-12T20:17:49.854Z,100556.56
2022-11-12T20:20:57.799Z,100562.54
2022-11-12T20:24:03.439Z,100567.81
2022-11-12T20:27:09.115Z,100568.59
2022-11-12T20:30:16.185Z,100569.17
2022-11-12T20:33:22.010Z,100572.23
2022-11-12T20:36:27.707Z,100572.73
2022-11-12T20:39:33.871Z,100570.70
2022-11-12T20:42:41.304Z,100568.35
2022-11-12T20:45:52.950Z,100566.67
2022-11-12T20:48:58.611Z,100570.47
2022-11-12T20:52:04.225Z,100571.66
2022-11-12T20:55:11.010Z,100569.75
2022-11-12T20:58:16.613Z,100565.83
2022-11-12T21:01:24.060Z,100556.94
2022-11-12T21:04:29.745Z,100556.14
2022-11-12T21:07:35.434Z,100555.30
2022-11-12T21:10:41.061Z,100554.16
2022-11-12T21:13:46.776Z,100555.38
2022-11-12T21:16:52.445Z,100554.80
2022-11-12T21:19:58.096Z,100555.02
2022-11-12T21:23:03.737Z,100556.35
2022-11-12T21:26:12.877Z,100556.83
2022-11-12T21:29:19.201Z,100556.34
2022-11-12T21:32:24.883Z,100550.98
2022-11-12T21:35:30.553Z,100549.59
2022-11-12T21:38:36.236Z,100551.42
2022-11-12T21:41:41.845Z,100551.22
2022-11-12T21:44:47.445Z,100547.09
2022-11-12T21:47:54.367Z,100542.89
2022-11-12T21:51:06.313Z,100540.93
2022-11-12T21:54:15.091Z,100546.77
2022-11-12T21:57:20.765Z,100550.55
2022-11-12T22:00:41.566Z,100545.34
2022-11-12T22:03:48.437Z,100540.95
2022-11-12T22:06:54.457Z,100540.87
2022-11-12T22:10:00.163Z,100542.66
2022-11-12T22:13:25.888Z,100545.14
2022-11-12T22:16:31.560Z,100547.02
2022-11-12T22:19:39.141Z,100544.17
2022-11-12T22:22:44.758Z,100541.80
2022-11-12T22:25:50.759Z,100539.55
2022-11-12T22:28:58.018Z,100541.23
2022-11-12T22:32:03.688Z,100547.65
2022-11-12T22:35:10.948Z,100541.41
2022-11-12T22:38:16.530Z,100539.77
2022-11-12T22:41:24.362Z,100541.84
2022-11-12T22:44:29.968Z,100533.95
2022-11-12T22:47:35.632Z,100532.42
2022-11-12T22:50:41.301Z,100531.39
2022-11-12T22:53:47.250Z,100526.77
2022-11-12T22:56:52.849Z,100528.60
2022-11-12T22:59:58.701Z,100529.18
2022-11-12T23:03:04.326Z,100521.84
2022-11-12T23:06:10.263Z,100518.09
2022-11-12T23:09:18.524Z,100513.01
2022-11-12T23:12:24.143Z,100514.73
2022-11-12T23:15:32.590Z,100517.04
2022-11-12T23:18:38.298Z,100511.70
2022-11-12T23:21:43.947Z,100509.19
2022-11-12T23:24:49.569Z,100503.94
2022-11-12T23:27:55.795Z,100502.06
2022-11-12T23:30:59.877Z,100492.84
2022-11-12T23:34:05.631Z,100490.10
2022-11-12T23:37:11.287Z,100493.89
2022-11-12T23:40:17.974Z,100492.58
2022-11-12T23:43:23.816Z,100495.02
2022-11-12T23:46:29.571Z,100493.35
2022-11-12T23:49:35.348Z,100488.46
2022-11-12T23:52:40.976Z,100480.24
2022-11-12T23:55:46.853Z,100482.45
2022-11-12T23:58:56.035Z,100483.55
